createdAt,value
2018-03-16T00:07:14.637Z,0
2018-03-16T00:17:14.553Z,0
2018-03-16T00:27:14.517Z,0
2018-03-16T00:37:14.548Z,0
2018-03-16T00:47:14.491Z,0
2018-03-16T00:57:14.577Z,0
2018-03-16T01:07:16.433Z,0
2018-03-16T01:17:16.558Z,0
2018-03-16T01:27:15.478Z,0
2018-03-16T01:37:14.571Z,0
2018-03-16T01:47:14.557Z,0
2018-03-16T01:57:14.592Z,0
2018-03-16T02:07:14.540Z,0
2018-03-16T02:17:14.467Z,0
2018-03-16T02:27:15.506Z,0
2018-03-16T02:37:14.500Z,0
2018-03-16T02:47:14.474Z,0
2018-03-16T02:57:14.559Z,0
2018-03-16T03:07:14.523Z,0
2018-03-16T03:17:15.464Z,0
2018-03-16T03:27:15.537Z,0
2018-03-16T03:37:15.474Z,0
2018-03-16T03:47:14.579Z,0
2018-03-16T03:57:15.512Z,0
2018-03-16T04:07:14.479Z,0
2018-03-16T04:17:14.515Z,0
2018-03-16T04:27:14.406Z,0
2018-03-16T04:37:14.457Z,0
2018-03-16T04:47:14.519Z,0
2018-03-16T04:57:14.486Z,0
2018-03-16T05:07:14.513Z,0
2018-03-16T05:17:15.547Z,0
2018-03-16T05:27:15.460Z,0
2018-03-16T05:37:14.515Z,0
2018-03-16T05:47:14.438Z,0
2018-03-16T05:57:14.432Z,0
2018-03-16T06:07:14.513Z,0
2018-03-16T06:17:14.451Z,5
2018-03-16T06:27:14.452Z,5
2018-03-16T06:37:14.478Z,10
2018-03-16T06:47:14.478Z,10
2018-03-16T06:57:14.532Z,15
2018-03-16T07:07:14.414Z,15
2018-03-16T07:17:14.442Z,20
2018-03-16T07:27:17.481Z,25
2018-03-16T07:37:14.486Z,35
2018-03-16T07:47:14.685Z,40
2018-03-16T07:57:14.522Z,30
2018-03-16T08:07:15.504Z,35
2018-03-16T08:17:14.490Z,40
2018-03-16T08:27:15.488Z,40
2018-03-16T08:37:14.433Z,50
2018-03-16T08:47:14.469Z,50
2018-03-16T08:57:14.522Z,45
2018-03-16T09:07:14.494Z,45
2018-03-16T09:17:14.522Z,55
2018-03-16T09:27:14.450Z,60
2018-03-16T09:37:14.437Z,60
2018-03-16T09:47:14.517Z,70
2018-03-16T09:57:14.417Z,60
2018-03-16T10:07:14.376Z,100
2018-03-16T10:17:14.452Z,80
2018-03-16T10:27:15.410Z,95
2018-03-16T10:37:14.488Z,70
2018-03-16T10:47:14.427Z,85
2018-03-16T10:57:14.390Z,105
2018-03-16T11:07:14.383Z,115
2018-03-16T11:17:14.391Z,100
2018-03-16T11:27:14.357Z,160
2018-03-16T11:37:14.397Z,105
2018-03-16T11:47:14.358Z,100
2018-03-16T11:57:14.292Z,110
2018-03-16T12:07:14.424Z,110
2018-03-16T12:17:14.350Z,155
2018-03-16T12:27:14.354Z,85
2018-03-16T12:37:14.334Z,105
2018-03-16T12:47:14.331Z,115
2018-03-16T12:57:27.703Z,105
2018-03-16T13:07:14.347Z,100
2018-03-16T13:17:19.527Z,85
2018-03-16T13:27:15.372Z,95
2018-03-16T13:37:14.403Z,75
2018-03-16T13:47:14.437Z,60
2018-03-16T13:57:14.397Z,60
2018-03-16T14:07:14.325Z,70
2018-03-16T14:17:17.316Z,70
2018-03-16T14:27:14.367Z,55
2018-03-16T14:37:14.457Z,60
2018-03-16T14:47:14.404Z,95
2018-03-16T14:57:14.249Z,80
2018-03-16T15:07:14.439Z,75
2018-03-16T15:17:14.296Z,85
2018-03-16T15:27:14.304Z,95
2018-03-16T15:37:14.413Z,45
2018-03-16T15:47:14.375Z,85
2018-03-16T15:57:14.257Z,45
2018-03-16T16:07:14.323Z,65
2018-03-16T16:17:14.534Z,50
2018-03-16T16:27:14.477Z,25
2018-03-16T16:37:14.332Z,35
2018-03-16T16:47:14.300Z,15
2018-03-16T16:57:14.320Z,10
2018-03-16T17:07:14.285Z,10
2018-03-16T17:17:14.201Z,10
2018-03-16T17:27:14.345Z,0
2018-03-16T17:37:14.335Z,0
2018-03-16T17:47:14.240Z,0
2018-03-16T17:57:14.297Z,0
2018-03-16T18:07:14.249Z,0
2018-03-16T18:17:14.345Z,0
2018-03-16T18:27:14.250Z,0
2018-03-16T18:37:14.323Z,0
2018-03-16T18:47:14.356Z,0
2018-03-16T18:57:14.319Z,0
2018-03-16T19:07:14.271Z,0
2018-03-16T19:17:14.278Z,0
2018-03-16T19:27:14.267Z,0
2018-03-16T19:37:14.221Z,0
2018-03-16T19:47:14.309Z,0
2018-03-16T19:57:14.262Z,0
2018-03-16T20:07:14.348Z,0
2018-03-16T20:17:14.321Z,0
2018-03-16T20:27:14.166Z,0
2018-03-16T20:37:14.286Z,0
2018-03-16T20:47:14.238Z,0
2018-03-16T20:57:14.242Z,0
2018-03-16T21:07:14.288Z,0
2018-03-16T21:17:14.315Z,0
2018-03-16T21:27:14.175Z,0
2018-03-16T21:37:14.321Z,0
2018-03-16T21:47:14.206Z,0
2018-03-16T21:57:14.186Z,0
2018-03-16T22:07:14.350Z,0
2018-03-16T22:17:14.343Z,0
2018-03-16T22:27:14.174Z,0
2018-03-16T22:37:14.452Z,0
2018-03-16T22:47:14.536Z,0
2018-03-16T22:57:16.223Z,0
2018-03-16T23:07:14.463Z,0
2018-03-16T23:17:16.658Z,0
2018-03-16T23:27:14.532Z,0
2018-03-16T23:37:23.746Z,0
2018-03-16T23:47:52.396Z,0
2018-03-16T23:57:33.681Z,0
